createdAt,value
2023-02-18T00:00:19.397Z,101942.13
2023-02-18T00:01:51.020Z,101938.78
2023-02-18T00:03:22.690Z,101939.63
2023-02-18T00:04:55.865Z,101936.06
2023-02-18T00:06:28.409Z,101941.38
2023-02-18T00:07:59.940Z,101939.44
2023-02-18T00:09:31.565Z,101938.69
2023-02-18T00:11:05.183Z,101927.34
2023-02-18T00:12:36.863Z,101928.06
2023-02-18T00:14:11.442Z,101932.38
2023-02-18T00:15:43.040Z,101928.84
2023-02-18T00:17:14.581Z,101932.50
2023-02-18T00:18:46.126Z,101929.94
2023-02-18T00:20:19.317Z,101926.28
2023-02-18T00:21:50.902Z,101929.84
2023-02-18T00:23:22.586Z,101920.97
2023-02-18T00:24:54.107Z,101927.97
2023-02-18T00:26:25.722Z,101918.31
2023-02-18T00:27:57.279Z,101923.63
2023-02-18T00:29:28.835Z,101919.28
2023-02-18T00:31:00.597Z,101910.63
2023-02-18T00:32:32.452Z,101901.91
2023-02-18T00:34:05.263Z,101901.09
2023-02-18T00:35:38.194Z,101909.09
2023-02-18T00:37:09.755Z,101904.78
2023-02-18T00:38:44.082Z,101899.22
2023-02-18T00:40:16.132Z,101897.53
2023-02-18T00:41:47.695Z,101905.47
2023-02-18T00:43:20.283Z,101896.66
2023-02-18T00:44:51.896Z,101901.03
2023-02-18T00:46:24.491Z,101905.41
2023-02-18T00:47:58.146Z,101902.69
2023-02-18T00:49:29.736Z,101913.25
2023-02-18T00:51:03.336Z,101909.75
2023-02-18T00:52:35.044Z,101901.84
2023-02-18T00:54:06.646Z,101898.47
2023-02-18T00:55:38.987Z,101896.66
2023-02-18T00:57:10.574Z,101894.94
2023-02-18T00:58:42.202Z,101887.84
2023-02-18T01:00:14.172Z,101889.72
2023-02-18T01:01:45.817Z,101888.78
2023-02-18T01:03:17.912Z,101884.41
2023-02-18T01:04:49.560Z,101882.69
2023-02-18T01:06:23.966Z,101873.97
2023-02-18T01:07:55.497Z,101876.66
2023-02-18T01:09:27.159Z,101871.44
2023-02-18T01:10:59.154Z,101882.03
2023-02-18T01:12:30.796Z,101874.94
2023-02-18T01:14:02.341Z,101878.50
2023-02-18T01:15:34.490Z,101876.75
2023-02-18T01:17:06.025Z,101872.31
2023-02-18T01:18:38.339Z,101872.34
2023-02-18T01:20:10.895Z,101873.25
2023-02-18T01:21:43.929Z,101873.34
2023-02-18T01:23:15.529Z,101872.47
2023-02-18T01:24:47.130Z,101871.59
2023-02-18T01:26:18.657Z,101870.78
2023-02-18T01:27:50.283Z,101879.72
2023-02-18T01:29:21.862Z,101866.56
2023-02-18T01:30:53.944Z,101875.38
2023-02-18T01:32:25.586Z,101874.63
2023-02-18T01:33:57.146Z,101876.47
2023-02-18T01:35:28.690Z,101872.16
2023-02-18T01:37:01.676Z,101870.31
2023-02-18T01:38:33.247Z,101863.41
2023-02-18T01:40:06.625Z,101861.69
2023-02-18T01:41:38.200Z,101858.19
2023-02-18T01:43:10.007Z,101848.53
2023-02-18T01:44:41.536Z,101849.31
2023-02-18T01:46:15.081Z,101848.44
2023-02-18T01:47:49.851Z,101845.78
2023-02-18T01:49:23.776Z,101848.53
2023-02-18T01:50:56.977Z,101833.72
2023-02-18T01:52:32.402Z,101838.25
2023-02-18T01:54:06.752Z,101838.34
2023-02-18T01:55:39.316Z,101843.66
2023-02-18T01:57:12.690Z,101848.06
2023-02-18T01:58:44.780Z,101828.78
2023-02-18T02:00:21.578Z,101832.25
2023-02-18T02:01:54.081Z,101826.19
2023-02-18T02:03:25.702Z,101834.00
2023-02-18T02:04:57.343Z,101822.63
2023-02-18T02:06:28.936Z,101827.91
2023-02-18T02:08:02.959Z,101830.66
2023-02-18T02:09:35.097Z,101835.06
2023-02-18T02:11:13.019Z,101825.50
2023-02-18T02:12:53.314Z,101827.38
2023-02-18T02:14:33.464Z,101831.88
2023-02-18T02:16:09.500Z,101824.16
2023-02-18T02:17:47.254Z,101826.00
2023-02-18T02:19:38.740Z,101827.84
2023-02-18T02:21:34.129Z,101820.91
2023-02-18T02:23:24.242Z,101824.44
2023-02-18T02:25:04.093Z,101815.72
2023-02-18T02:26:53.491Z,101810.53
2023-02-18T02:28:58.314Z,101808.75
2023-02-18T02:30:53.901Z,101796.47
2023-02-18T02:32:46.328Z,101801.75
2023-02-18T02:34:26.661Z,101797.44
2023-02-18T02:36:02.896Z,101795.78
2023-02-18T02:37:38.531Z,101789.72
2023-02-18T02:39:14.638Z,101781.81
2023-02-18T02:40:47.163Z,101784.25
2023-02-18T02:42:24.154Z,101779.72
2023-02-18T02:44:01.314Z,101787.59
2023-02-18T02:45:38.527Z,101788.47
2023-02-18T02:47:14.480Z,101788.31
2023-02-18T02:48:49.116Z,101776.00
2023-02-18T02:50:28.313Z,101783.00
2023-02-18T02:52:03.314Z,101782.06
2023-02-18T02:53:35.793Z,101782.09
2023-02-18T02:55:09.715Z,101775.91
2023-02-18T02:56:43.470Z,101774.91
2023-02-18T02:58:17.412Z,101780.88
2023-02-18T02:59:52.424Z,101775.56
2023-02-18T03:01:32.715Z,101774.81
2023-02-18T03:03:21.959Z,101771.31
2023-02-18T03:05:06.345Z,101773.16
2023-02-18T03:06:45.976Z,101775.59
2023-02-18T03:08:23.792Z,101765.84
2023-02-18T03:10:03.341Z,101767.53
2023-02-18T03:11:41.442Z,101762.25
2023-02-18T03:13:16.791Z,101756.19
2023-02-18T03:14:54.893Z,101754.47
2023-02-18T03:16:27.874Z,101754.50
2023-02-18T03:18:03.221Z,101751.88
2023-02-18T03:19:36.987Z,101756.25
2023-02-18T03:21:11.009Z,101747.50
2023-02-18T03:22:46.836Z,101755.47
2023-02-18T03:24:20.860Z,101758.16
2023-02-18T03:25:53.316Z,101742.19
2023-02-18T03:27:27.326Z,101754.50
2023-02-18T03:29:01.057Z,101743.06
2023-02-18T03:30:37.062Z,101747.47
2023-02-18T03:32:10.581Z,101744.94
2023-02-18T03:33:44.968Z,101744.13
2023-02-18T03:35:17.435Z,101745.94
2023-02-18T03:36:49.302Z,101753.00
2023-02-18T03:38:24.793Z,101749.50
2023-02-18T03:39:59.217Z,101744.25
2023-02-18T03:41:32.395Z,101745.16
2023-02-18T03:43:04.675Z,101737.25
2023-02-18T03:44:36.768Z,101731.16
2023-02-18T03:46:08.816Z,101731.25
2023-02-18T03:47:40.521Z,101732.28
2023-02-18T03:49:13.032Z,101727.06
2023-02-18T03:50:45.227Z,101723.56
2023-02-18T03:52:17.116Z,101719.28
2023-02-18T03:53:50.030Z,101723.78
2023-02-18T03:55:21.624Z,101713.31
2023-02-18T03:56:53.201Z,101713.34
2023-02-18T03:58:24.750Z,101707.28
2023-02-18T03:59:56.274Z,101704.72
2023-02-18T04:01:27.893Z,101693.53
2023-02-18T04:02:59.435Z,101701.47
2023-02-18T04:04:31.051Z,101700.72
2023-02-18T04:07:50.042Z,101691.16
2023-02-18T04:09:21.606Z,101695.47
2023-02-18T04:10:53.125Z,101691.03
2023-02-18T04:12:24.758Z,101683.06
2023-02-18T04:13:56.299Z,101684.78
2023-02-18T04:15:27.882Z,101686.50
2023-02-18T04:16:59.419Z,101680.41
2023-02-18T04:18:30.974Z,101683.06
2023-02-18T04:20:04.578Z,101687.53
2023-02-18T04:21:36.185Z,101687.50
2023-02-18T04:23:09.053Z,101693.69
2023-02-18T04:24:40.750Z,101687.69
2023-02-18T04:26:12.641Z,101682.38
2023-02-18T04:27:44.206Z,101678.16
2023-02-18T04:29:15.854Z,101686.13
2023-02-18T04:30:48.108Z,101679.22
2023-02-18T04:32:19.743Z,101684.53
2023-02-18T04:33:51.314Z,101680.16
2023-02-18T04:35:22.841Z,101676.66
2023-02-18T04:36:54.369Z,101683.69
2023-02-18T04:38:27.312Z,101680.22
2023-02-18T04:39:58.948Z,101682.00
2023-02-18T04:41:30.502Z,101684.72
2023-02-18T04:43:02.098Z,101679.50
2023-02-18T04:44:33.625Z,101677.91
2023-02-18T04:46:05.196Z,101678.81
2023-02-18T04:47:36.728Z,101667.44
2023-02-18T04:49:08.339Z,101674.47
2023-02-18T04:50:39.864Z,101668.31
2023-02-18T04:52:11.401Z,101666.66
2023-02-18T04:53:44.345Z,101662.25
2023-02-18T04:55:15.918Z,101670.19
2023-02-18T04:56:47.508Z,101668.41
2023-02-18T04:58:19.123Z,101661.34
2023-02-18T04:59:50.674Z,101663.13
2023-02-18T05:01:22.309Z,101649.00
2023-02-18T05:02:53.986Z,101662.19
2023-02-18T05:04:25.598Z,101658.69
2023-02-18T05:05:57.618Z,101665.69
2023-02-18T05:07:29.144Z,101662.22
2023-02-18T05:09:02.020Z,101656.91
2023-02-18T05:10:33.541Z,101653.44
2023-02-18T05:12:05.307Z,101660.41
2023-02-18T05:13:36.866Z,101654.25
2023-02-18T05:15:09.091Z,101653.38
2023-02-18T05:16:40.630Z,101638.50
2023-02-18T05:18:12.181Z,101649.97
2023-02-18T05:19:43.820Z,101646.41
2023-02-18T05:21:15.377Z,101655.25
2023-02-18T05:22:46.944Z,101651.72
2023-02-18T05:24:19.870Z,101646.44
2023-02-18T05:25:51.436Z,101640.28
2023-02-18T05:27:23.030Z,101641.13
2023-02-18T05:28:54.567Z,101634.13
2023-02-18T05:30:26.110Z,101628.78
2023-02-18T05:31:57.745Z,101616.47
2023-02-18T05:33:29.393Z,101620.94
2023-02-18T05:35:00.971Z,101624.38
2023-02-18T05:36:32.562Z,101619.16
2023-02-18T05:38:04.118Z,101613.88
2023-02-18T05:39:37.171Z,101602.53
2023-02-18T05:41:08.699Z,101596.38
2023-02-18T05:42:40.279Z,101586.84
2023-02-18T05:44:30.416Z,101593.84
2023-02-18T05:46:02.015Z,101573.75
2023-02-18T05:47:33.568Z,101590.41
2023-02-18T05:49:05.107Z,101585.19
2023-02-18T05:50:36.731Z,101587.75
2023-02-18T05:52:08.351Z,101601.03
2023-02-18T05:53:39.938Z,101587.03
2023-02-18T05:55:12.850Z,101587.91
2023-02-18T05:56:44.524Z,101579.09
2023-02-18T05:58:17.088Z,101575.59
2023-02-18T05:59:48.764Z,101572.06
2023-02-18T06:01:20.338Z,101573.81
2023-02-18T06:02:51.888Z,101575.53
2023-02-18T06:04:23.563Z,101580.78
2023-02-18T06:05:55.113Z,101586.78
2023-02-18T06:07:26.728Z,101582.31
2023-02-18T06:08:58.278Z,101579.66
2023-02-18T06:10:32.537Z,101568.09
2023-02-18T06:12:04.347Z,101574.13
2023-02-18T06:13:36.032Z,101579.31
2023-02-18T06:15:07.938Z,101578.53
2023-02-18T06:16:39.499Z,101560.03
2023-02-18T06:18:11.021Z,101574.06
2023-02-18T06:19:42.616Z,101578.38
2023-02-18T06:21:14.172Z,101578.34
2023-02-18T06:22:45.776Z,101582.66
2023-02-18T06:24:17.329Z,101581.78
2023-02-18T06:25:50.518Z,101586.91
2023-02-18T06:27:22.144Z,101575.34
2023-02-18T06:28:53.707Z,101574.41
2023-02-18T06:30:25.311Z,101579.63
2023-02-18T06:31:57.026Z,101568.13
2023-02-18T06:33:28.628Z,101573.38
2023-02-18T06:35:00.153Z,101575.03
2023-02-18T06:36:31.671Z,101576.75
2023-02-18T06:38:03.430Z,101568.75
2023-02-18T06:39:34.978Z,101573.97
2023-02-18T06:41:08.427Z,101566.91
2023-02-18T06:42:40.002Z,101571.16
2023-02-18T06:44:11.693Z,101567.59
2023-02-18T06:45:43.206Z,101571.16
2023-02-18T06:47:14.771Z,101572.88
2023-02-18T06:48:46.444Z,101572.91
2023-02-18T06:50:19.593Z,101572.91
2023-02-18T06:51:51.141Z,101574.59
2023-02-18T06:53:22.792Z,101576.25
2023-02-18T06:54:54.306Z,101574.44
2023-02-18T06:56:27.925Z,101572.75
2023-02-18T06:58:00.276Z,101570.94
2023-02-18T06:59:31.863Z,101576.19
2023-02-18T07:01:03.904Z,101580.53
2023-02-18T07:02:35.587Z,101581.59
2023-02-18T07:04:07.290Z,101588.53
2023-02-18T07:05:38.875Z,101594.59
2023-02-18T07:07:10.404Z,101594.47
2023-02-18T07:08:42.005Z,101591.81
2023-02-18T07:10:13.582Z,101586.31
2023-02-18T07:11:46.530Z,101595.09
2023-02-18T07:13:18.084Z,101599.50
2023-02-18T07:14:49.642Z,101600.34
2023-02-18T07:16:21.297Z,101605.53
2023-02-18T07:17:53.307Z,101602.72
2023-02-18T07:19:24.881Z,101596.63
2023-02-18T07:20:56.591Z,101586.03
2023-02-18T07:22:28.116Z,101577.31
2023-02-18T07:23:59.722Z,101587.94
2023-02-18T07:25:31.356Z,101585.50
2023-02-18T07:27:04.253Z,101590.97
2023-02-18T07:28:36.139Z,101577.72
2023-02-18T07:30:08.515Z,101578.56
2023-02-18T07:31:40.152Z,101583.06
2023-02-18T07:33:11.853Z,101570.91
2023-02-18T07:34:43.387Z,101582.28
2023-02-18T07:36:14.911Z,101583.25
2023-02-18T07:37:46.965Z,101582.31
2023-02-18T07:39:20.752Z,101607.81
2023-02-18T07:40:52.583Z,101604.16
2023-02-18T07:42:25.703Z,101594.50
2023-02-18T07:43:57.474Z,101585.69
2023-02-18T07:45:29.035Z,101587.47
2023-02-18T07:47:00.961Z,101606.66
2023-02-18T07:48:32.514Z,101595.09
2023-02-18T07:50:04.887Z,101605.69
2023-02-18T07:51:38.385Z,101616.28
2023-02-18T07:53:10.622Z,101606.56
2023-02-18T07:54:42.700Z,101604.59
2023-02-18T07:56:14.257Z,101613.34
2023-02-18T07:57:57.272Z,101607.88
2023-02-18T07:59:28.997Z,101622.84
2023-02-18T08:01:00.639Z,101627.16
2023-02-18T08:02:32.191Z,101627.19
2023-02-18T08:04:04.280Z,101625.47
2023-02-18T08:05:35.864Z,101620.13
2023-02-18T08:07:07.395Z,101605.19
2023-02-18T08:08:39.030Z,101624.59
2023-02-18T08:10:10.628Z,101634.28
2023-02-18T08:11:42.338Z,101631.81
2023-02-18T08:13:15.544Z,101636.34
2023-02-18T08:14:47.214Z,101636.38
2023-02-18T08:16:20.533Z,101635.66
2023-02-18T08:17:52.350Z,101625.25
2023-02-18T08:19:23.886Z,101641.06
2023-02-18T08:20:55.729Z,101639.44
2023-02-18T08:22:27.384Z,101649.06
2023-02-18T08:23:59.587Z,101655.16
2023-02-18T08:25:31.145Z,101650.84
2023-02-18T08:27:02.685Z,101649.06
2023-02-18T08:28:35.642Z,101655.34
2023-02-18T08:30:08.117Z,101658.75
2023-02-18T08:31:39.799Z,101646.38
2023-02-18T08:33:11.476Z,101655.94
2023-02-18T08:34:43.040Z,101653.25
2023-02-18T08:36:14.627Z,101646.31
2023-02-18T08:37:54.074Z,101648.31
2023-02-18T08:39:26.480Z,101647.34
2023-02-18T08:41:01.884Z,101642.84
2023-02-18T08:42:33.504Z,101642.56
2023-02-18T08:44:06.577Z,101640.47
2023-02-18T08:45:38.185Z,101645.59
2023-02-18T08:48:17.071Z,101640.94
2023-02-18T08:49:01.286Z,101637.22
2023-02-18T08:50:32.869Z,101633.59
2023-02-18T08:52:05.005Z,101634.50
2023-02-18T08:53:36.607Z,101636.28
2023-02-18T08:55:08.401Z,101639.16
2023-02-18T08:56:40.039Z,101625.13
2023-02-18T08:58:12.016Z,101631.41
2023-02-18T08:59:44.976Z,101627.00
2023-02-18T09:01:16.693Z,101626.03
2023-02-18T09:02:48.353Z,101626.09
2023-02-18T09:04:21.179Z,101619.22
2023-02-18T09:05:52.860Z,101622.69
2023-02-18T09:07:24.372Z,101627.03
2023-02-18T09:08:55.989Z,101611.22
2023-02-18T09:10:27.549Z,101606.97
2023-02-18T09:11:59.147Z,101597.34
2023-02-18T09:13:30.853Z,101627.00
2023-02-18T09:15:04.867Z,101621.66
2023-02-18T09:16:38.305Z,101623.34
2023-02-18T09:18:09.881Z,101611.78
2023-02-18T09:19:41.465Z,101608.13
2023-02-18T09:21:14.563Z,101608.94
2023-02-18T09:22:46.111Z,101604.50
2023-02-18T09:24:17.687Z,101620.56
2023-02-18T09:25:49.325Z,101615.03
2023-02-18T09:27:21.235Z,101603.53
2023-02-18T09:28:53.572Z,101600.09
2023-02-18T09:30:26.555Z,101602.81
2023-02-18T09:31:59.996Z,101600.13
2023-02-18T09:33:31.655Z,101603.66
2023-02-18T09:35:04.152Z,101599.34
2023-02-18T09:36:35.822Z,101596.81
2023-02-18T09:38:07.808Z,101604.78
2023-02-18T09:39:39.349Z,101602.94
2023-02-18T09:41:15.314Z,101605.72
2023-02-18T09:42:46.966Z,101594.31
2023-02-18T09:44:21.258Z,101605.78
2023-02-18T09:45:54.473Z,101595.56
2023-02-18T09:47:31.568Z,101615.84
2023-02-18T09:49:04.297Z,101605.09
2023-02-18T09:50:35.927Z,101596.19
2023-02-18T09:52:17.663Z,101599.78
2023-02-18T09:53:49.370Z,101597.91
2023-02-18T09:55:23.654Z,101596.91
2023-02-18T09:56:55.650Z,101605.56
2023-02-18T09:58:30.362Z,101594.22
2023-02-18T10:00:05.168Z,101592.50
2023-02-18T10:01:45.929Z,101582.69
2023-02-18T10:03:18.328Z,101586.13
2023-02-18T10:04:52.267Z,101585.19
2023-02-18T10:06:25.570Z,101593.06
2023-02-18T10:08:00.653Z,101590.53
2023-02-18T10:09:34.591Z,101573.63
2023-02-18T10:11:12.381Z,101581.66
2023-02-18T10:12:44.237Z,101579.84
2023-02-18T10:14:15.850Z,101588.44
2023-02-18T10:15:48.754Z,101576.09
2023-02-18T10:17:23.210Z,101575.09
2023-02-18T10:18:56.985Z,101575.72
2023-02-18T10:20:30.063Z,101572.22
2023-02-18T10:22:02.529Z,101579.09
2023-02-18T10:23:35.222Z,101582.53
2023-02-18T10:25:07.569Z,101589.63
2023-02-18T10:26:40.415Z,101576.41
2023-02-18T10:28:12.356Z,101573.75
2023-02-18T10:29:43.935Z,101580.00
2023-02-18T10:31:18.615Z,101589.00
2023-02-18T10:32:54.791Z,101603.25
2023-02-18T10:34:37.451Z,101582.69
2023-02-18T10:36:17.890Z,101594.94
2023-02-18T10:37:54.840Z,101605.72
2023-02-18T10:39:42.717Z,101609.34
2023-02-18T10:41:19.304Z,101599.66
2023-02-18T10:42:58.045Z,101617.06
2023-02-18T10:44:33.176Z,101616.16
2023-02-18T10:46:07.970Z,101618.66
2023-02-18T10:47:43.104Z,101629.19
2023-02-18T10:49:28.608Z,101621.22
2023-02-18T10:51:02.395Z,101628.03
2023-02-18T10:52:37.084Z,101618.19
2023-02-18T10:54:09.218Z,101619.88
2023-02-18T10:55:42.119Z,101630.44
2023-02-18T10:57:17.655Z,101628.59
2023-02-18T10:58:49.210Z,101631.94
2023-02-18T11:00:24.073Z,101636.22
2023-02-18T11:01:57.190Z,101626.63
2023-02-18T11:03:39.146Z,101633.47
2023-02-18T11:05:19.625Z,101629.16
2023-02-18T11:06:52.415Z,101629.31
2023-02-18T11:08:26.690Z,101626.97
2023-02-18T11:09:59.136Z,101637.66
2023-02-18T11:11:32.167Z,101632.47
2023-02-18T11:13:05.694Z,101632.53
2023-02-18T11:14:38.532Z,101628.13
2023-02-18T11:16:12.069Z,101628.19
2023-02-18T11:17:46.318Z,101638.97
2023-02-18T11:19:33.498Z,101633.75
2023-02-18T11:21:11.013Z,101635.19
2023-02-18T11:22:43.494Z,101640.56
2023-02-18T11:24:16.018Z,101626.53
2023-02-18T11:25:55.432Z,101634.53
2023-02-18T11:27:30.856Z,101633.75
2023-02-18T11:29:04.217Z,101630.19
2023-02-18T11:30:38.283Z,101637.00
2023-02-18T11:32:11.599Z,101632.59
2023-02-18T11:33:44.581Z,101623.09
2023-02-18T11:35:18.884Z,101627.38
2023-02-18T11:36:52.548Z,101629.88
2023-02-18T11:38:26.631Z,101630.56
2023-02-18T11:39:58.258Z,101628.78
2023-02-18T11:41:31.998Z,101627.91
2023-02-18T11:43:05.231Z,101628.69
2023-02-18T11:44:38.495Z,101636.56
2023-02-18T11:46:11.048Z,101633.88
2023-02-18T11:47:42.563Z,101633.84
2023-02-18T11:49:21.321Z,101632.16
2023-02-18T11:50:53.850Z,101633.97
2023-02-18T11:52:27.568Z,101635.88
2023-02-18T11:54:02.688Z,101627.03
2023-02-18T11:55:34.330Z,101643.03
2023-02-18T11:57:06.882Z,101641.22
2023-02-18T11:58:40.970Z,101636.88
2023-02-18T12:00:16.199Z,101636.38
2023-02-18T12:01:50.596Z,101634.44
2023-02-18T12:03:32.209Z,101630.91
2023-02-18T12:05:11.699Z,101632.09
2023-02-18T12:06:47.204Z,101633.75
2023-02-18T12:08:24.053Z,101637.97
2023-02-18T12:09:58.031Z,101639.47
2023-02-18T12:11:32.171Z,101635.13
2023-02-18T12:13:06.501Z,101631.56
2023-02-18T12:14:38.055Z,101632.31
2023-02-18T12:16:18.268Z,101628.66
2023-02-18T12:17:57.448Z,101626.88
2023-02-18T12:19:40.590Z,101625.97
2023-02-18T12:21:15.656Z,101623.38
2023-02-18T12:22:52.534Z,101624.31
2023-02-18T12:24:38.343Z,101622.63
2023-02-18T12:26:18.363Z,101613.94
2023-02-18T12:27:54.046Z,101615.50
2023-02-18T12:29:39.232Z,101622.56
2023-02-18T12:31:17.968Z,101619.88
2023-02-18T12:32:55.096Z,101612.91
2023-02-18T12:34:32.736Z,101620.78
2023-02-18T12:36:08.988Z,101618.06
2023-02-18T12:37:57.325Z,101608.22
2023-02-18T12:39:35.907Z,101615.13
2023-02-18T12:41:23.739Z,101619.53
2023-02-18T12:43:01.432Z,101620.50
2023-02-18T12:44:36.877Z,101620.59
2023-02-18T12:46:33.172Z,101627.50
2023-02-18T12:48:20.373Z,101624.84
2023-02-18T12:50:04.241Z,101625.75
2023-02-18T12:51:42.672Z,101625.06
2023-02-18T12:53:22.632Z,101627.50
2023-02-18T12:55:03.889Z,101628.31
2023-02-18T12:56:53.621Z,101621.28
2023-02-18T12:58:32.546Z,101631.00
2023-02-18T13:00:22.827Z,101624.03
2023-02-18T13:01:59.346Z,101629.09
2023-02-18T13:03:48.708Z,101625.50
2023-02-18T13:05:25.988Z,101626.28
2023-02-18T13:07:03.578Z,101627.00
2023-02-18T13:08:41.299Z,101619.03
2023-02-18T13:10:33.855Z,101621.63
2023-02-18T13:12:11.064Z,101614.66
2023-02-18T13:13:45.238Z,101613.75
2023-02-18T13:15:19.695Z,101620.94
2023-02-18T13:16:52.430Z,101619.47
2023-02-18T13:18:26.650Z,101625.59
2023-02-18T13:20:00.006Z,101627.41
2023-02-18T13:21:32.014Z,101624.78
2023-02-18T13:23:04.457Z,101622.13
2023-02-18T13:24:37.848Z,101632.59
2023-02-18T13:26:13.268Z,101614.00
2023-02-18T13:27:50.648Z,101622.22
2023-02-18T13:29:26.189Z,101618.88
2023-02-18T13:31:05.012Z,101612.56
2023-02-18T13:32:39.269Z,101624.84
2023-02-18T13:34:17.150Z,101629.28
2023-02-18T13:35:52.448Z,101618.06
2023-02-18T13:37:28.876Z,101620.59
2023-02-18T13:39:02.906Z,101624.03
2023-02-18T13:40:34.823Z,101620.50
2023-02-18T13:42:24.022Z,101618.75
2023-02-18T13:43:57.013Z,101617.81
2023-02-18T13:45:29.884Z,101631.16
2023-02-18T13:47:01.520Z,101623.13
2023-02-18T13:48:36.052Z,101619.69
2023-02-18T13:50:26.732Z,101618.97
2023-02-18T13:51:59.516Z,101625.84
2023-02-18T13:53:32.067Z,101624.78
2023-02-18T13:55:04.299Z,101623.75
2023-02-18T13:56:36.149Z,101629.91
2023-02-18T13:58:13.928Z,101619.28
2023-02-18T13:59:49.294Z,101632.44
2023-02-18T14:01:22.774Z,101618.38
2023-02-18T14:02:58.841Z,101620.84
2023-02-18T14:04:48.225Z,101625.38
2023-02-18T14:06:20.582Z,101624.03
2023-02-18T14:07:52.849Z,101624.03
2023-02-18T14:09:38.936Z,101619.53
2023-02-18T14:11:29.375Z,101628.41
2023-02-18T14:13:03.488Z,101632.81
2023-02-18T14:14:37.533Z,101617.84
2023-02-18T14:16:11.426Z,101617.81
2023-02-18T14:17:43.773Z,101623.03
2023-02-18T14:19:27.738Z,101625.50
2023-02-18T14:21:18.178Z,101629.00
2023-02-18T14:22:51.394Z,101622.06
2023-02-18T14:24:37.817Z,101623.91
2023-02-18T14:26:16.540Z,101623.88
2023-02-18T14:27:50.954Z,101614.00
2023-02-18T14:29:27.976Z,101621.00
2023-02-18T14:31:01.458Z,101616.59
2023-02-18T14:32:34.768Z,101619.25
2023-02-18T14:34:36.325Z,101615.63
2023-02-18T14:36:09.998Z,101618.22
2023-02-18T14:37:52.420Z,101604.16
2023-02-18T14:39:35.998Z,101610.38
2023-02-18T14:41:22.472Z,101614.88
2023-02-18T14:43:00.677Z,101613.13
2023-02-18T14:44:39.225Z,101607.03
2023-02-18T14:46:17.161Z,101620.22
2023-02-18T14:47:56.029Z,101606.13
2023-02-18T14:49:36.608Z,101603.41
2023-02-18T14:51:08.711Z,101608.53
2023-02-18T14:52:42.660Z,101608.69
2023-02-18T14:54:17.834Z,101597.28
2023-02-18T14:55:51.160Z,101604.28
2023-02-18T14:57:27.585Z,101605.06
2023-02-18T14:59:01.665Z,101590.88
2023-02-18T15:00:34.593Z,101602.34
2023-02-18T15:02:15.225Z,101595.19
2023-02-18T15:03:49.227Z,101589.97
2023-02-18T15:05:22.326Z,101604.13
2023-02-18T15:07:00.904Z,101605.94
2023-02-18T15:08:37.310Z,101611.31
2023-02-18T15:10:14.430Z,101609.59
2023-02-18T15:11:49.704Z,101601.72
2023-02-18T15:13:23.522Z,101606.06
2023-02-18T15:15:05.825Z,101613.28
2023-02-18T15:16:38.571Z,101605.34
2023-02-18T15:18:18.291Z,101614.22
2023-02-18T15:19:53.548Z,101614.25
2023-02-18T15:21:27.885Z,101616.91
2023-02-18T15:22:59.790Z,101616.78
2023-02-18T15:24:32.666Z,101613.28
2023-02-18T15:26:05.226Z,101617.59
2023-02-18T15:27:39.802Z,101610.59
2023-02-18T15:29:16.083Z,101605.34
2023-02-18T15:30:48.937Z,101603.63
2023-02-18T15:32:21.461Z,101618.69
2023-02-18T15:33:53.334Z,101614.31
2023-02-18T15:35:29.718Z,101617.00
2023-02-18T15:37:01.961Z,101626.59
2023-02-18T15:38:33.967Z,101621.22
2023-02-18T15:40:12.626Z,101626.38
2023-02-18T15:41:44.360Z,101612.97
2023-02-18T15:43:17.623Z,101619.91
2023-02-18T15:44:50.885Z,101626.94
2023-02-18T15:46:24.059Z,101623.41
2023-02-18T15:47:57.500Z,101619.84
2023-02-18T15:49:29.708Z,101622.50
2023-02-18T15:51:16.312Z,101617.22
2023-02-18T15:52:49.029Z,101624.41
2023-02-18T15:54:22.302Z,101619.84
2023-02-18T15:55:54.665Z,101624.19
2023-02-18T15:57:28.441Z,101615.34
2023-02-18T15:59:10.094Z,101620.59
2023-02-18T16:00:42.655Z,101626.56
2023-02-18T16:02:18.899Z,101620.34
2023-02-18T16:03:50.548Z,101620.28
2023-02-18T16:05:26.053Z,101613.31
2023-02-18T16:07:01.428Z,101610.66
2023-02-18T16:08:33.033Z,101607.91
2023-02-18T16:10:09.089Z,101611.47
2023-02-18T16:11:43.302Z,101610.72
2023-02-18T16:13:16.089Z,101608.09
2023-02-18T16:14:49.056Z,101611.66
2023-02-18T16:16:24.009Z,101620.41
2023-02-18T16:17:56.052Z,101610.72
2023-02-18T16:19:28.218Z,101605.50
2023-02-18T16:21:01.738Z,101608.13
2023-02-18T16:22:36.548Z,101614.16
2023-02-18T16:24:22.649Z,101607.13
2023-02-18T16:25:54.259Z,101606.28
2023-02-18T16:27:28.531Z,101611.69
2023-02-18T16:29:12.822Z,101614.28
2023-02-18T16:30:46.178Z,101610.13
2023-02-18T16:32:18.694Z,101617.22
2023-02-18T16:33:50.398Z,101613.75
2023-02-18T16:35:22.671Z,101615.53
2023-02-18T16:37:12.898Z,101604.97
2023-02-18T16:38:46.305Z,101609.47
2023-02-18T16:40:23.048Z,101612.94
2023-02-18T16:41:54.672Z,101609.38
2023-02-18T16:43:27.497Z,101612.84
2023-02-18T16:44:59.085Z,101608.41
2023-02-18T16:46:31.427Z,101605.75
2023-02-18T16:48:04.868Z,101609.34
2023-02-18T16:49:37.545Z,101611.94
2023-02-18T16:51:13.376Z,101614.50
2023-02-18T16:52:45.054Z,101608.44
2023-02-18T16:54:20.974Z,101615.50
2023-02-18T16:55:53.198Z,101612.84
2023-02-18T16:57:24.770Z,101613.81
2023-02-18T16:58:56.408Z,101611.97
2023-02-18T17:00:28.206Z,101610.22
2023-02-18T17:02:00.031Z,101601.34
2023-02-18T17:03:31.843Z,101610.25
2023-02-18T17:05:04.960Z,101623.41
2023-02-18T17:06:39.468Z,101620.72
2023-02-18T17:08:14.945Z,101611.81
2023-02-18T17:09:47.911Z,101620.53
2023-02-18T17:11:21.402Z,101617.13
2023-02-18T17:12:53.012Z,101618.03
2023-02-18T17:14:24.673Z,101616.47
2023-02-18T17:15:57.060Z,101611.31
2023-02-18T17:17:28.629Z,101622.75
2023-02-18T17:19:00.278Z,101623.75
2023-02-18T17:20:32.760Z,101621.09
2023-02-18T17:22:04.380Z,101623.88
2023-02-18T17:23:35.935Z,101629.16
2023-02-18T17:25:14.514Z,101623.03
2023-02-18T17:26:46.079Z,101626.59
2023-02-18T17:28:19.305Z,101623.94
2023-02-18T17:29:50.912Z,101621.41
2023-02-18T17:31:26.169Z,101627.53
2023-02-18T17:32:58.423Z,101622.25
2023-02-18T17:34:35.873Z,101627.66
2023-02-18T17:36:07.954Z,101630.19
2023-02-18T17:37:39.722Z,101620.50
2023-02-18T17:39:12.424Z,101627.50
2023-02-18T17:40:45.699Z,101620.59
2023-02-18T17:42:17.321Z,101626.84
2023-02-18T17:43:48.862Z,101628.75
2023-02-18T17:45:24.050Z,101627.91
2023-02-18T17:46:55.600Z,101627.03
2023-02-18T17:48:28.263Z,101618.22
2023-02-18T17:49:59.824Z,101625.38
2023-02-18T17:51:31.695Z,101640.38
2023-02-18T17:53:03.349Z,101638.66
2023-02-18T17:54:34.988Z,101629.88
2023-02-18T17:56:11.328Z,101636.81
2023-02-18T17:57:44.985Z,101629.84